Time;durP1;ratioP1;P1;durP2;ratioP2;P2;SDS_P1;SDS_P2;PMS_P1;PMS_P2;Temp;Humidity;BMP_temperature;BMP_pressure;BME280_temperature;BME280_humidity;BME280_pressure;Samples;Min_cycle;Max_cycle;Signal;HPM_P1;HPM_P2
2021/06/27 00:01:18;;;;;;;1.95;1.15;;;;;;;16.56;70.13;93013.25;2071315;69;20530;-74
2021/06/27 00:03:43;;;;;;;1.75;1.10;;;;;;;16.48;69.84;93005.81;2068120;69;20583;-74
2021/06/27 00:06:09;;;;;;;2.92;1.10;;;;;;;16.62;69.58;93016.34;2071492;69;20151;-73
2021/06/27 00:08:36;;;;;;;2.95;1.15;;;;;;;16.56;69.56;93016.81;2071379;69;20136;-74
2021/06/27 00:11:03;;;;;;;2.92;1.20;;;;;;;16.46;70.20;93008.59;2071444;69;20132;-73
2021/06/27 00:13:30;;;;;;;1.40;1.10;;;;;;;16.36;70.45;93001.75;2071358;69;20140;-74
2021/06/27 00:15:57;;;;;;;3.67;1.27;;;;;;;16.32;70.85;93007.97;2071295;69;20218;-75
2021/06/27 00:18:26;;;;;;;2.50;1.25;;;;;;;16.43;69.61;93015.56;2071592;69;20498;-73
2021/06/27 00:20:57;;;;;;;2.88;1.20;;;;;;;16.28;71.72;93004.94;2071511;69;20330;-74
2021/06/27 00:23:25;;;;;;;2.45;1.55;;;;;;;16.24;70.76;93011.16;2071331;69;20131;-72
2021/06/27 00:25:53;;;;;;;1.20;1.10;;;;;;;16.35;69.28;93005.94;2071492;69;20227;-74
2021/06/27 00:28:20;;;;;;;6.15;1.20;;;;;;;16.33;69.89;92998.06;2071626;69;20164;-74
2021/06/27 00:30:47;;;;;;;2.92;1.10;;;;;;;16.35;69.90;93000.25;2071558;69;20140;-74
2021/06/27 00:33:13;;;;;;;2.95;1.15;;;;;;;16.25;70.42;93001.28;2068127;69;20163;-76
2021/06/27 00:35:39;;;;;;;2.00;1.15;;;;;;;16.25;69.96;92995.59;2071570;69;20247;-73
2021/06/27 00:38:06;;;;;;;4.32;1.30;;;;;;;16.27;69.97;92994.97;2071406;69;20236;-73
2021/06/27 00:40:33;;;;;;;5.50;1.10;;;;;;;16.40;68.97;92988.44;2068098;69;20140;-73
2021/06/27 00:42:59;;;;;;;1.10;1.00;;;;;;;16.37;69.06;92992.56;2071604;69;20164;-73
2021/06/27 00:45:27;;;;;;;1.38;1.20;;;;;;;16.21;69.90;92986.88;2071906;69;20526;-74
2021/06/27 00:47:54;;;;;;;1.75;1.10;;;;;;;16.31;68.85;92985.88;2071549;69;20633;-74
2021/06/27 00:50:27;;;;;;;3.47;1.30;;;;;;;16.19;70.25;92991.75;2071787;69;20156;-73
2021/06/27 00:52:53;;;;;;;3.28;1.30;;;;;;;16.25;68.57;92992.75;2071750;69;20144;-74
2021/06/27 00:55:20;;;;;;;3.45;1.20;;;;;;;16.32;69.05;92993.03;2071691;69;20251;-74
2021/06/27 00:57:47;;;;;;;6.30;1.30;;;;;;;16.35;68.71;92989.63;2071880;69;20159;-73
2021/06/27 01:00:17;;;;;;;1.42;0.95;;;;;;;16.17;69.85;92986.72;2071853;69;20148;-74
2021/06/27 01:02:44;;;;;;;2.38;1.17;;;;;;;16.13;68.56;92986.53;2071878;69;20145;-73
2021/06/27 01:05:13;;;;;;;2.38;1.00;;;;;;;15.93;71.06;92979.94;2071837;69;20179;-73
2021/06/27 01:07:40;;;;;;;4.57;1.23;;;;;;;16.46;69.31;92983.03;2071961;69;20157;-74
2021/06/27 01:10:07;;;;;;;4.55;1.17;;;;;;;16.40;69.19;92976.31;2072015;69;20526;-74
2021/06/27 01:12:32;;;;;;;2.58;1.13;;;;;;;16.39;68.10;92980.53;2071878;69;20183;-73
2021/06/27 01:15:00;;;;;;;3.58;1.23;;;;;;;16.44;67.59;92987.88;2068562;69;20171;-74
2021/06/27 01:17:25;;;;;;;2.97;1.20;;;;;;;16.30;67.83;92987.97;2071969;69;20152;-73
2021/06/27 01:19:51;;;;;;;4.47;1.20;;;;;;;16.54;67.46;92994.00;2071799;69;20612;-74
2021/06/27 01:22:17;;;;;;;2.35;1.30;;;;;;;16.36;67.60;92996.06;2071875;69;20243;-73
2021/06/27 01:24:43;;;;;;;1.30;1.17;;;;;;;16.43;67.72;92997.78;2068503;69;20133;-73
2021/06/27 01:27:08;;;;;;;2.95;1.20;;;;;;;16.10;69.59;93002.00;2071898;69;20144;-73
2021/06/27 01:29:34;;;;;;;1.63;1.40;;;;;;;16.10;68.31;92992.78;2068472;69;20174;-74
2021/06/27 01:32:00;;;;;;;2.45;1.23;;;;;;;16.08;68.22;92998.34;2071937;69;20141;-73
2021/06/27 01:34:25;;;;;;;2.75;1.35;;;;;;;15.95;68.84;92994.25;2071963;69;20140;-73
2021/06/27 01:36:51;;;;;;;6.80;1.20;;;;;;;15.78;69.83;93009.78;2071877;69;20156;-73
2021/06/27 01:39:17;;;;;;;1.73;1.20;;;;;;;15.66;70.93;93012.78;2071844;69;20514;-73
2021/06/27 01:41:50;;;;;;;2.60;1.30;;;;;;;15.85;70.27;93016.47;2071798;69;20248;-74
2021/06/27 01:44:17;;;;;;;3.30;1.30;;;;;;;15.93;68.14;93014.00;2071921;69;20140;-75
2021/06/27 01:46:43;;;;;;;3.80;1.20;;;;;;;15.74;70.77;93018.09;2071765;69;20232;-73
2021/06/27 01:49:09;;;;;;;3.97;1.33;;;;;;;15.69;69.84;93020.03;2070918;69;20152;-73
2021/06/27 01:51:35;;;;;;;2.75;1.58;;;;;;;15.46;71.55;93018.19;2070785;69;20160;-74
2021/06/27 01:54:01;;;;;;;3.92;1.17;;;;;;;15.51;71.84;93014.19;2071523;69;20245;-74
2021/06/27 01:56:27;;;;;;;1.50;1.27;;;;;;;15.62;70.06;93011.81;2071655;69;20136;-73
2021/06/27 01:58:52;;;;;;;2.85;1.20;;;;;;;15.62;70.53;93012.56;2071502;69;20641;-75
2021/06/27 02:01:20;;;;;;;2.58;1.40;;;;;;;15.24;72.08;93005.78;2068258;69;20159;-74
2021/06/27 02:03:50;;;;;;;5.57;1.40;;;;;;;15.03;73.13;93003.31;2071805;69;20163;-73
2021/06/27 02:06:21;;;;;;;2.25;1.48;;;;;;;15.36;71.16;92995.03;2071886;69;20144;-74
2021/06/27 02:08:46;;;;;;;5.82;1.27;;;;;;;15.51;69.11;93007.78;2071615;69;20132;-74
2021/06/27 02:11:16;;;;;;;6.93;1.33;;;;;;;15.64;69.73;93007.00;2071574;69;20176;-73
2021/06/27 02:13:42;;;;;;;3.60;1.40;;;;;;;15.68;69.80;93006.47;2068494;69;20143;-75
2021/06/27 02:16:09;;;;;;;2.38;1.00;;;;;;;15.73;69.21;93005.28;2068202;69;20156;-75
2021/06/27 02:18:38;;;;;;;3.28;1.23;;;;;;;15.79;69.46;93002.00;2068246;69;20633;-74
2021/06/27 02:21:16;;;;;;;2.13;1.20;;;;;;;15.67;70.00;92997.22;2071399;69;20148;-75
2021/06/27 02:23:43;;;;;;;1.80;1.33;;;;;;;15.57;69.54;92990.31;2071742;69;20554;-74
2021/06/27 02:26:10;;;;;;;2.28;1.20;;;;;;;15.54;70.03;92986.66;2071759;69;20179;-74
2021/06/27 02:28:37;;;;;;;3.13;1.27;;;;;;;15.71;69.60;92994.59;2071732;69;20617;-75
2021/06/27 02:31:04;;;;;;;1.40;1.30;;;;;;;15.67;69.11;92988.00;2071590;69;20136;-75
2021/06/27 02:33:30;;;;;;;1.60;1.40;;;;;;;15.50;69.56;92987.19;2071778;69;20160;-74
2021/06/27 02:35:57;;;;;;;2.35;1.25;;;;;;;15.42;70.77;92989.63;2068357;69;20174;-73
2021/06/27 02:38:23;;;;;;;3.20;1.23;;;;;;;15.41;71.31;92991.00;2071733;69;20251;-73
2021/06/27 02:40:48;;;;;;;1.92;1.17;;;;;;;15.17;71.56;92992.69;2071626;69;20148;-73
2021/06/27 02:43:17;;;;;;;4.03;1.20;;;;;;;15.32;70.67;92994.84;2071772;69;20683;-74
2021/06/27 02:45:44;;;;;;;1.20;1.10;;;;;;;15.28;70.13;92991.06;2071673;69;20214;-74
2021/06/27 02:48:10;;;;;;;1.50;1.20;;;;;;;15.36;69.61;92994.31;2068144;69;20607;-74
2021/06/27 02:50:38;;;;;;;1.35;1.25;;;;;;;15.07;72.59;93007.09;2071516;69;20148;-74
2021/06/27 02:53:05;;;;;;;1.75;1.23;;;;;;;15.24;70.90;93014.28;2071554;69;20148;-74
2021/06/27 02:55:31;;;;;;;4.60;1.45;;;;;;;15.12;72.11;93008.00;2071595;69;20180;-74
2021/06/27 02:57:57;;;;;;;3.30;1.27;;;;;;;15.36;70.37;93008.47;2071539;69;20148;-74
2021/06/27 03:00:23;;;;;;;2.67;1.33;;;;;;;15.35;69.58;93002.09;2071567;69;20156;-74
2021/06/27 03:02:49;;;;;;;1.45;1.23;;;;;;;15.21;71.49;93001.38;2071449;69;20678;-74
2021/06/27 03:05:16;;;;;;;1.67;1.20;;;;;;;15.06;72.83;92987.88;2071487;69;20140;-75
2021/06/27 03:07:43;;;;;;;2.55;1.20;;;;;;;15.12;70.63;92974.00;2071598;69;20203;-74
2021/06/27 03:10:11;;;;;;;1.83;1.42;;;;;;;15.27;70.73;92972.59;2071540;69;20243;-75
2021/06/27 03:12:45;;;;;;;3.20;1.20;;;;;;;15.24;70.51;92969.63;2071535;69;20236;-73
2021/06/27 03:15:14;;;;;;;4.72;1.45;;;;;;;15.65;69.64;92968.75;2071603;69;20241;-74
2021/06/27 03:17:40;;;;;;;2.90;1.60;;;;;;;15.58;69.77;92963.38;2071660;69;20148;-75
2021/06/27 03:20:08;;;;;;;3.90;1.48;;;;;;;15.29;70.97;92958.50;2068253;69;20143;-74
2021/06/27 03:22:34;;;;;;;2.95;1.40;;;;;;;15.28;70.15;92963.44;2071528;69;20166;-74
2021/06/27 03:25:00;;;;;;;3.72;1.48;;;;;;;15.25;70.66;92956.19;2071654;69;20602;-75
2021/06/27 03:27:26;;;;;;;2.47;1.35;;;;;;;15.16;70.54;92945.84;2068353;69;20156;-74
2021/06/27 03:29:52;;;;;;;1.70;1.52;;;;;;;14.92;72.01;92945.41;2071493;69;20148;-74
2021/06/27 03:32:18;;;;;;;5.07;1.70;;;;;;;15.04;71.57;92954.50;2071565;69;20219;-75
2021/06/27 03:34:44;;;;;;;3.00;1.60;;;;;;;15.17;70.75;92945.22;2068107;69;20136;-74
2021/06/27 03:37:09;;;;;;;1.60;1.50;;;;;;;14.68;72.78;92948.50;2068147;69;20156;-74
2021/06/27 03:39:36;;;;;;;3.25;1.40;;;;;;;15.02;71.31;92959.31;2068196;69;20153;-74
2021/06/27 03:42:02;;;;;;;2.65;1.50;;;;;;;15.13;71.09;92964.13;2071408;69;20206;-74
2021/06/27 03:44:29;;;;;;;3.15;1.40;;;;;;;15.00;72.70;92960.69;2071537;69;20243;-74
2021/06/27 03:46:55;;;;;;;2.50;1.40;;;;;;;14.82;72.93;92956.25;2068082;69;20237;-74
2021/06/27 03:49:21;;;;;;;2.05;1.50;;;;;;;14.83;72.21;92947.09;2071549;69;20175;-74
2021/06/27 03:51:47;;;;;;;2.53;1.40;;;;;;;15.16;70.89;92935.22;2071485;69;20139;-74
2021/06/27 03:54:14;;;;;;;2.70;1.67;;;;;;;15.24;71.10;92940.56;2071589;69;20228;-75
2021/06/27 03:56:39;;;;;;;1.75;1.30;;;;;;;15.12;71.07;92939.97;2068258;69;20148;-75
2021/06/27 03:59:05;;;;;;;1.73;1.50;;;;;;;15.22;70.23;92940.47;2071661;69;20521;-75
2021/06/27 04:01:31;;;;;;;1.95;1.38;;;;;;;15.20;70.85;92934.69;2071615;69;20160;-74
2021/06/27 04:03:57;;;;;;;5.13;1.42;;;;;;;15.22;69.49;92927.03;2068223;69;20580;-75
2021/06/27 04:06:22;;;;;;;2.03;1.33;;;;;;;15.08;72.58;92946.19;2071657;69;20125;-75
2021/06/27 04:08:48;;;;;;;4.65;1.40;;;;;;;15.47;69.76;92943.06;2071561;69;20148;-75
2021/06/27 04:11:14;;;;;;;2.50;1.50;;;;;;;15.51;69.81;92936.84;2071664;69;20634;-75
2021/06/27 04:13:39;;;;;;;2.22;1.40;;;;;;;15.52;69.88;92941.16;2068184;69;20173;-74
2021/06/27 04:16:06;;;;;;;2.70;1.38;;;;;;;15.36;70.93;92943.25;2071554;69;20302;-75
2021/06/27 04:18:34;;;;;;;1.45;1.30;;;;;;;15.30;70.67;92948.59;2071924;69;20151;-75
2021/06/27 04:21:01;;;;;;;3.63;1.35;;;;;;;15.44;69.56;92944.34;2072057;69;20132;-75
2021/06/27 04:23:29;;;;;;;1.52;1.42;;;;;;;15.45;69.38;92945.09;2072098;69;20179;-75
2021/06/27 04:25:55;;;;;;;5.20;1.40;;;;;;;15.55;69.86;92939.88;2072060;69;20140;-75
2021/06/27 04:28:20;;;;;;;1.90;1.33;;;;;;;15.51;69.58;92934.75;2072090;69;20140;-75
2021/06/27 04:30:46;;;;;;;1.48;1.38;;;;;;;15.48;69.33;92933.19;2072181;69;20209;-76
2021/06/27 04:33:12;;;;;;;3.42;1.90;;;;;;;15.26;70.88;92926.47;2068724;69;20218;-75
2021/06/27 04:35:40;;;;;;;2.40;1.60;;;;;;;15.47;69.46;92931.72;2068835;69;20135;-75
2021/06/27 04:38:12;;;;;;;2.15;1.50;;;;;;;15.60;69.28;92937.97;2068790;69;20136;-74
2021/06/27 04:40:38;;;;;;;1.60;1.50;;;;;;;15.66;68.90;92944.66;2072146;69;20140;-75
2021/06/27 04:43:04;;;;;;;1.80;1.50;;;;;;;15.57;70.15;92934.28;2072020;69;20151;-75
2021/06/27 04:45:31;;;;;;;4.95;1.58;;;;;;;15.57;69.75;92937.13;2071980;69;20154;-75
2021/06/27 04:47:57;;;;;;;4.22;1.70;;;;;;;15.60;71.36;92935.84;2072014;69;20583;-75
2021/06/27 04:50:23;;;;;;;3.25;1.48;;;;;;;15.49;73.28;92948.13;2071983;69;20175;-74
2021/06/27 04:52:52;;;;;;;3.35;1.50;;;;;;;15.75;69.79;92948.59;2071989;69;20595;-74
2021/06/27 04:55:19;;;;;;;6.07;1.52;;;;;;;15.92;67.39;92955.75;2072024;69;20276;-75
2021/06/27 04:57:45;;;;;;;4.13;1.50;;;;;;;16.11;67.89;92954.47;2071945;69;20201;-74
2021/06/27 05:00:11;;;;;;;2.08;1.40;;;;;;;15.82;70.60;92958.88;2071991;69;20164;-73
2021/06/27 05:02:36;;;;;;;2.65;1.60;;;;;;;15.65;70.88;92954.56;2072005;69;20155;-75
2021/06/27 05:05:06;;;;;;;1.90;1.52;;;;;;;15.95;68.99;92965.84;2072082;69;20168;-74
2021/06/27 05:07:32;;;;;;;3.22;1.60;;;;;;;16.20;66.96;92953.44;2072087;69;20152;-75
2021/06/27 05:09:58;;;;;;;1.77;1.40;;;;;;;16.28;67.64;92953.81;2071961;69;20153;-75
2021/06/27 05:12:25;;;;;;;2.13;1.30;;;;;;;16.40;67.64;92960.03;2072006;69;20151;-75
2021/06/27 05:14:51;;;;;;;2.40;1.42;;;;;;;16.43;68.34;92960.84;2071946;69;20144;-75
2021/06/27 05:17:16;;;;;;;1.48;1.38;;;;;;;16.46;67.83;92960.28;2068559;69;20603;-75
2021/06/27 05:19:42;;;;;;;1.80;1.65;;;;;;;16.26;68.88;92959.38;2071947;69;20155;-75
2021/06/27 05:22:08;;;;;;;3.28;1.38;;;;;;;16.44;65.87;92950.94;2071937;69;20240;-76
2021/06/27 05:24:33;;;;;;;2.60;1.50;;;;;;;16.47;68.36;92949.66;2071928;69;20589;-75
2021/06/27 05:26:59;;;;;;;1.75;1.55;;;;;;;16.56;66.67;92942.22;2071988;69;20243;-75
2021/06/27 05:29:25;;;;;;;2.78;1.70;;;;;;;16.49;67.57;92927.75;2071709;69;20196;-74
2021/06/27 05:31:50;;;;;;;1.70;1.60;;;;;;;16.05;68.64;92920.88;2071933;69;20225;-74
2021/06/27 05:34:16;;;;;;;1.70;1.60;;;;;;;16.19;68.31;92926.44;2072024;69;20164;-74
2021/06/27 05:36:42;;;;;;;2.30;1.60;;;;;;;16.43;67.30;92936.00;2071912;69;20132;-74
2021/06/27 05:39:09;;;;;;;4.05;2.20;;;;;;;16.68;67.82;92929.25;2071889;69;20144;-74
2021/06/27 05:41:36;;;;;;;2.83;1.67;;;;;;;16.60;67.57;92931.75;2071901;69;20228;-73
2021/06/27 05:44:03;;;;;;;1.92;1.60;;;;;;;16.30;67.73;92936.84;2071850;69;20680;-73
2021/06/27 05:46:29;;;;;;;1.52;1.42;;;;;;;16.45;67.70;92930.41;2071832;69;20141;-74
2021/06/27 05:48:54;;;;;;;1.30;1.20;;;;;;;16.66;68.41;92928.41;2071840;69;20137;-73
2021/06/27 05:51:20;;;;;;;1.50;1.40;;;;;;;16.70;66.86;92917.22;2071896;69;20136;-74
2021/06/27 05:53:46;;;;;;;3.30;1.35;;;;;;;16.92;65.44;92915.31;2071957;69;20140;-74
2021/06/27 05:56:14;;;;;;;3.53;1.52;;;;;;;17.05;65.61;92919.41;2065717;69;20172;-74
2021/06/27 05:58:43;;;;;;;1.60;1.45;;;;;;;16.87;66.29;92930.03;2071851;69;20148;-73
2021/06/27 06:01:14;;;;;;;2.00;1.60;;;;;;;16.81;65.86;92924.81;2071819;69;20584;-74
2021/06/27 06:03:41;;;;;;;1.70;1.40;;;;;;;17.00;66.92;92923.47;2071822;69;20140;-74
2021/06/27 06:06:10;;;;;;;1.70;1.35;;;;;;;17.16;64.32;92921.25;2071778;69;20591;-74
2021/06/27 06:08:36;;;;;;;1.88;1.48;;;;;;;17.30;64.60;92920.34;2071769;69;20240;-73
2021/06/27 06:11:02;;;;;;;1.75;1.40;;;;;;;17.37;64.39;92913.53;2068393;69;20178;-74
2021/06/27 06:13:28;;;;;;;2.70;1.50;;;;;;;17.51;62.48;92922.63;2071913;69;20132;-74
2021/06/27 06:15:54;;;;;;;1.40;1.30;;;;;;;17.61;67.61;92917.31;2071939;69;20588;-73
2021/06/27 06:18:19;;;;;;;1.63;1.10;;;;;;;17.70;64.41;92918.34;2072045;69;20144;-73
2021/06/27 06:20:45;;;;;;;1.63;1.20;;;;;;;17.74;64.25;92910.72;2071890;69;20172;-74
2021/06/27 06:23:10;;;;;;;2.78;1.58;;;;;;;17.83;66.02;92908.19;2071908;69;20148;-73
2021/06/27 06:25:36;;;;;;;1.55;1.45;;;;;;;17.83;64.62;92905.34;2071858;69;20163;-74
2021/06/27 06:28:01;;;;;;;1.42;1.30;;;;;;;17.96;66.23;92895.84;2068422;69;20147;-74
2021/06/27 06:30:27;;;;;;;1.50;1.33;;;;;;;18.02;67.05;92888.25;2071779;69;20136;-74
2021/06/27 06:32:53;;;;;;;4.07;1.30;;;;;;;18.15;64.95;92900.81;2071769;69;20594;-74
2021/06/27 06:35:19;;;;;;;3.47;1.30;;;;;;;18.25;62.81;92886.22;2071934;69;20156;-74
2021/06/27 06:37:44;;;;;;;2.15;1.33;;;;;;;18.31;61.90;92885.69;2071793;69;20144;-74
2021/06/27 06:40:11;;;;;;;2.97;1.30;;;;;;;18.42;63.43;92887.50;2071663;69;20168;-74
2021/06/27 06:42:36;;;;;;;1.60;1.50;;;;;;;18.44;67.62;92894.00;2068231;69;20197;-73
2021/06/27 06:45:02;;;;;;;2.88;1.70;;;;;;;18.31;62.98;92897.81;2071796;69;20176;-76
2021/06/27 06:47:31;;;;;;;1.52;1.30;;;;;;;18.47;61.42;92898.38;2071679;69;20582;-73
2021/06/27 06:49:56;;;;;;;5.00;1.38;;;;;;;18.48;63.44;92897.00;2071681;69;20152;-73
2021/06/27 06:52:22;;;;;;;3.90;1.50;;;;;;;18.45;62.62;92897.56;2071778;69;20152;-76
2021/06/27 06:54:49;;;;;;;3.75;1.50;;;;;;;18.61;62.00;92894.56;2071714;69;20534;-73
2021/06/27 06:57:16;;;;;;;2.75;1.10;;;;;;;18.52;62.21;92897.13;2071677;69;20171;-73
2021/06/27 06:59:41;;;;;;;1.40;1.30;;;;;;;18.54;65.34;92893.63;2071697;69;20179;-74
2021/06/27 07:02:07;;;;;;;2.17;1.30;;;;;;;18.78;64.21;92899.44;2071798;69;20209;-73
2021/06/27 07:04:33;;;;;;;2.80;1.25;;;;;;;18.78;60.94;92897.34;2071699;69;20141;-73
2021/06/27 07:06:59;;;;;;;1.40;1.30;;;;;;;18.83;62.38;92894.59;2071759;69;20140;-73
2021/06/27 07:09:24;;;;;;;1.30;1.20;;;;;;;18.90;61.25;92888.44;2071813;69;20607;-73
2021/06/27 07:11:50;;;;;;;4.35;1.42;;;;;;;19.01;63.93;92889.50;2071793;69;20148;-73
2021/06/27 07:14:15;;;;;;;1.98;1.20;;;;;;;18.82;66.12;92893.16;2071765;69;20606;-74
2021/06/27 07:16:41;;;;;;;2.08;1.40;;;;;;;18.92;62.36;92887.78;2071650;69;20162;-73
2021/06/27 07:19:06;;;;;;;2.20;1.38;;;;;;;18.98;65.18;92882.28;2071882;69;20150;-73
2021/06/27 07:21:32;;;;;;;3.50;1.30;;;;;;;19.07;64.03;92880.44;2071759;69;20148;-73
2021/06/27 07:23:58;;;;;;;2.95;1.23;;;;;;;19.14;62.45;92887.78;2071632;69;20212;-72
2021/06/27 07:26:24;;;;;;;4.18;1.60;;;;;;;19.15;62.46;92889.97;2071732;69;20205;-73
2021/06/27 07:28:50;;;;;;;2.05;1.30;;;;;;;19.22;62.94;92882.31;2071715;69;20496;-72
2021/06/27 07:31:16;;;;;;;3.47;1.63;;;;;;;19.25;64.03;92884.59;2071923;69;20598;-72
2021/06/27 07:33:42;;;;;;;2.53;1.65;;;;;;;19.32;63.27;92876.19;2071597;69;20698;-72
2021/06/27 07:36:07;;;;;;;1.42;1.30;;;;;;;19.32;62.19;92865.50;2071703;69;20293;-72
2021/06/27 07:38:35;;;;;;;3.88;1.55;;;;;;;19.39;66.13;92861.47;2071609;69;20175;-73
2021/06/27 07:41:01;;;;;;;1.60;1.50;;;;;;;19.47;65.62;92866.66;2071658;69;20177;-73
2021/06/27 07:43:27;;;;;;;2.15;1.20;;;;;;;19.58;64.45;92862.00;2071631;69;20147;-72
2021/06/27 07:45:52;;;;;;;4.72;1.60;;;;;;;19.55;61.14;92864.06;2071557;69;20225;-73
2021/06/27 07:48:19;;;;;;;1.38;1.27;;;;;;;19.65;63.25;92852.97;2068291;69;20156;-73
2021/06/27 07:50:46;;;;;;;2.88;1.38;;;;;;;19.62;61.43;92856.47;2071574;69;20140;-74
2021/06/27 07:53:11;;;;;;;3.25;1.50;;;;;;;19.71;62.88;92855.31;2071792;69;20257;-73
2021/06/27 07:55:37;;;;;;;2.03;1.40;;;;;;;19.86;64.08;92862.16;2072270;69;20607;-74
2021/06/27 07:58:03;;;;;;;1.40;1.30;;;;;;;19.87;64.61;92852.91;2072056;69;20229;-74
2021/06/27 08:00:31;;;;;;;2.88;1.52;;;;;;;19.90;66.88;92845.84;2072068;69;20242;-74
2021/06/27 08:02:57;;;;;;;2.47;1.50;;;;;;;19.99;62.94;92844.69;2072050;69;20144;-72
2021/06/27 08:05:23;;;;;;;1.83;1.52;;;;;;;20.06;62.61;92839.84;2068621;69;20611;-73
2021/06/27 08:07:49;;;;;;;2.42;1.75;;;;;;;20.15;64.70;92840.81;2072040;69;20234;-73
2021/06/27 08:10:14;;;;;;;3.08;1.50;;;;;;;20.19;63.44;92838.78;2072120;69;20227;-73
2021/06/27 08:12:41;;;;;;;2.50;1.67;;;;;;;19.91;60.19;92841.59;2071979;69;20238;-76
2021/06/27 08:15:09;;;;;;;1.83;1.33;;;;;;;20.04;57.31;92831.25;2071990;69;20156;-72
2021/06/27 08:17:35;;;;;;;1.73;1.30;;;;;;;20.29;61.32;92833.34;2068662;69;20160;-74
2021/06/27 08:20:01;;;;;;;1.85;1.70;;;;;;;20.48;62.80;92834.59;2072050;69;20512;-74
2021/06/27 08:22:27;;;;;;;2.13;1.90;;;;;;;20.73;62.26;92827.38;2072021;69;20518;-74
2021/06/27 08:24:53;;;;;;;2.40;1.88;;;;;;;20.83;58.97;92826.88;2072015;69;20231;-74
2021/06/27 08:27:18;;;;;;;3.53;1.90;;;;;;;21.16;58.92;92827.66;2072276;69;20180;-74
2021/06/27 08:29:44;;;;;;;3.45;1.80;;;;;;;21.43;62.88;92831.91;2071973;69;20175;-74
2021/06/27 08:32:10;;;;;;;3.08;1.70;;;;;;;21.63;56.81;92823.03;2072048;69;20583;-75
2021/06/27 08:34:36;;;;;;;2.15;1.65;;;;;;;21.39;56.77;92821.06;2071950;69;20151;-73
2021/06/27 08:37:01;;;;;;;2.78;1.60;;;;;;;22.22;57.62;92807.81;2072072;69;20549;-74
2021/06/27 08:39:27;;;;;;;2.20;1.83;;;;;;;22.58;56.72;92809.88;2071976;69;20487;-75
2021/06/27 08:41:54;;;;;;;2.03;1.83;;;;;;;23.57;49.99;92812.91;2071993;69;20148;-74
2021/06/27 08:44:20;;;;;;;2.10;1.90;;;;;;;23.00;50.74;92807.03;2071973;69;20239;-74
2021/06/27 08:46:48;;;;;;;3.80;1.63;;;;;;;23.61;49.79;92809.38;2071912;69;20145;-75
2021/06/27 08:49:14;;;;;;;3.85;1.70;;;;;;;23.88;54.03;92802.59;2071941;69;20151;-77
2021/06/27 08:51:41;;;;;;;2.42;1.70;;;;;;;24.15;52.68;92803.66;2068547;69;20251;-77
2021/06/27 08:54:08;;;;;;;2.35;1.60;;;;;;;24.03;52.57;92789.09;2072081;69;20138;-77
2021/06/27 08:56:36;;;;;;;2.17;1.65;;;;;;;24.56;50.05;92783.97;2071942;69;20152;-79
2021/06/27 08:59:03;;;;;;;3.65;1.65;;;;;;;24.79;49.58;92788.50;2071888;69;20152;-77
2021/06/27 09:01:29;;;;;;;1.77;1.40;;;;;;;25.75;47.36;92780.59;2071948;69;20145;-78
2021/06/27 09:03:58;;;;;;;1.85;1.50;;;;;;;25.18;47.92;92777.31;2071855;69;20750;-75
2021/06/27 09:06:30;;;;;;;2.85;1.60;;;;;;;26.21;44.20;92788.03;2071843;69;20618;-75
2021/06/27 09:09:17;;;;;;;1.95;1.45;;;;;;;25.94;45.95;92781.44;2071901;69;20196;-75
2021/06/27 09:12:04;;;;;;;2.63;1.58;;;;;;;25.75;43.64;92774.81;2068504;69;20152;-75
2021/06/27 09:14:33;;;;;;;2.83;1.38;;;;;;;26.33;48.03;92767.84;2071866;69;20538;-76
2021/06/27 09:17:15;;;;;;;1.73;1.10;;;;;;;26.41;42.87;92763.56;2071858;69;20172;-76
2021/06/27 09:20:03;;;;;;;1.40;1.30;;;;;;;26.72;47.00;92758.59;2068556;69;20180;-76
2021/06/27 09:22:35;;;;;;;4.25;1.35;;;;;;;25.18;45.06;92748.53;2071910;69;20172;-75
2021/06/27 09:25:31;;;;;;;1.63;1.40;;;;;;;26.03;42.38;92745.41;2071897;69;20236;-75
2021/06/27 09:28:02;;;;;;;1.40;1.10;;;;;;;26.50;41.79;92739.06;2068328;69;20140;-75
2021/06/27 09:30:28;;;;;;;2.08;1.20;;;;;;;27.11;42.79;92742.75;2068533;69;20235;-76
2021/06/27 09:33:03;;;;;;;3.05;1.40;;;;;;;26.66;41.09;92739.09;2071837;69;20162;-75
2021/06/27 09:35:46;;;;;;;2.25;1.30;;;;;;;27.06;41.25;92729.72;2068533;69;20251;-76
2021/06/27 09:38:22;;;;;;;1.85;1.27;;;;;;;26.89;42.85;92739.81;2071964;69;20163;-75
2021/06/27 09:40:49;;;;;;;1.70;1.20;;;;;;;27.09;40.23;92736.25;2071502;69;20159;-74
2021/06/27 09:43:16;;;;;;;2.63;1.00;;;;;;;27.77;40.57;92734.00;2071064;69;20246;-74
2021/06/27 09:45:47;;;;;;;2.38;1.00;;;;;;;28.01;38.92;92728.13;2070990;69;20194;-76
2021/06/27 09:48:13;;;;;;;1.08;0.98;;;;;;;28.38;38.29;92727.97;2071434;69;20148;-75
2021/06/27 09:50:39;;;;;;;2.60;1.10;;;;;;;27.81;38.94;92726.03;2071849;69;20204;-75
2021/06/27 09:53:05;;;;;;;2.58;1.10;;;;;;;27.65;39.50;92725.31;2071644;69;20155;-74
2021/06/27 09:55:31;;;;;;;1.00;0.90;;;;;;;27.74;35.38;92721.00;2071729;69;20133;-75
2021/06/27 09:58:15;;;;;;;2.65;1.10;;;;;;;28.06;36.41;92715.06;2068453;69;20263;-74
2021/06/27 10:00:41;;;;;;;1.83;0.95;;;;;;;28.28;37.32;92711.34;2068398;69;20316;-75
2021/06/27 10:03:08;;;;;;;2.33;1.08;;;;;;;28.05;36.81;92702.06;2071773;69;20186;-75
2021/06/27 10:05:34;;;;;;;2.28;2.00;;;;;;;28.56;36.82;92707.59;2071706;69;20674;-75
2021/06/27 10:08:00;;;;;;;2.17;1.58;;;;;;;28.51;35.18;92717.75;2071740;69;20147;-76
2021/06/27 10:10:26;;;;;;;1.23;1.13;;;;;;;29.00;36.43;92708.75;2071694;69;20197;-75
2021/06/27 10:12:52;;;;;;;1.48;0.93;;;;;;;29.53;35.99;92722.03;2071745;69;20164;-72
2021/06/27 10:15:17;;;;;;;3.30;1.08;;;;;;;29.98;35.57;92710.69;2071534;69;20589;-73
2021/06/27 10:17:44;;;;;;;1.38;1.02;;;;;;;30.16;36.42;92706.16;2071851;69;20167;-73
2021/06/27 10:20:12;;;;;;;1.05;0.98;;;;;;;30.55;35.65;92701.25;2071557;69;20219;-73
2021/06/27 10:22:38;;;;;;;1.45;1.20;;;;;;;30.88;33.30;92703.69;2071688;69;20148;-75
2021/06/27 10:25:08;;;;;;;1.30;1.20;;;;;;;30.31;34.35;92701.59;2071389;69;20179;-75
2021/06/27 10:27:34;;;;;;;3.55;1.10;;;;;;;29.87;34.58;92695.59;2071734;69;20147;-78
2021/06/27 10:30:01;;;;;;;1.25;1.15;;;;;;;29.92;35.95;92687.56;2071813;69;20152;-74
2021/06/27 10:32:28;;;;;;;2.65;1.10;;;;;;;30.23;34.74;92690.81;2071878;69;20237;-79
2021/06/27 10:34:55;;;;;;;1.15;0.90;;;;;;;30.73;33.96;92690.84;2071877;69;20184;-75
2021/06/27 10:37:32;;;;;;;1.55;0.95;;;;;;;31.28;33.07;92687.81;2065641;69;20156;-75
2021/06/27 10:40:13;;;;;;;2.15;1.00;;;;;;;32.44;31.34;92679.06;2071571;69;20179;-75
2021/06/27 10:42:47;;;;;;;1.10;0.80;;;;;;;32.93;30.53;92668.50;2071760;69;20147;-75
2021/06/27 10:45:13;;;;;;;0.95;0.95;;;;;;;33.24;28.99;92669.19;2071691;69;20140;-74
2021/06/27 10:47:39;;;;;;;1.02;0.93;;;;;;;32.97;28.73;92666.19;2071845;69;20148;-74
2021/06/27 10:50:08;;;;;;;1.38;0.90;;;;;;;33.28;29.83;92666.16;2071697;69;20179;-74
2021/06/27 10:52:53;;;;;;;1.00;0.90;;;;;;;33.60;28.54;92661.72;2067794;69;20143;-74
2021/06/27 10:55:20;;;;;;;1.25;1.15;;;;;;;34.69;27.10;92658.66;2067761;69;20163;-74
2021/06/27 10:57:59;;;;;;;1.20;1.10;;;;;;;35.31;28.08;92655.91;2068437;69;20148;-74
2021/06/27 11:00:27;;;;;;;1.65;0.90;;;;;;;35.30;27.67;92654.50;2068331;69;20188;-74
2021/06/27 11:02:53;;;;;;;2.50;0.90;;;;;;;36.16;27.18;92654.50;2068450;69;20218;-74
2021/06/27 11:05:39;;;;;;;1.13;0.70;;;;;;;36.62;26.61;92657.19;2068275;69;20180;-75
2021/06/27 11:08:05;;;;;;;0.75;0.70;;;;;;;38.37;24.12;92655.09;2068347;69;20148;-75
2021/06/27 11:10:33;;;;;;;1.00;0.82;;;;;;;38.21;21.54;92646.97;2068325;69;20140;-75
2021/06/27 11:13:02;;;;;;;1.00;0.90;;;;;;;40.39;21.77;92651.81;2068349;69;20152;-75
2021/06/27 11:15:58;;;;;;;2.00;1.00;;;;;;;40.50;21.43;92651.25;2068391;69;20738;-74
2021/06/27 11:18:33;;;;;;;0.90;0.80;;;;;;;41.86;19.85;92649.53;2068397;69;20176;-75
2021/06/27 11:20:58;;;;;;;0.95;0.70;;;;;;;42.45;17.37;92638.66;2067705;69;20158;-75
2021/06/27 11:23:51;;;;;;;1.13;0.80;;;;;;;43.64;18.10;92638.47;2068270;69;20544;-75
2021/06/27 11:26:41;;;;;;;0.73;0.68;;;;;;;43.13;18.37;92632.91;2068262;69;20148;-74
2021/06/27 11:29:22;;;;;;;1.00;0.90;;;;;;;44.24;17.38;92632.97;2068404;69;20148;-75
2021/06/27 11:31:54;;;;;;;1.63;0.80;;;;;;;45.62;17.62;92630.56;2068310;69;20152;-75
2021/06/27 11:34:24;;;;;;;4.75;0.80;;;;;;;44.91;16.48;92627.56;2068285;69;20680;-75
2021/06/27 11:36:52;;;;;;;1.80;0.90;;;;;;;47.10;15.54;92633.31;2068463;69;20144;-75